sensor_id;sensor_type;location;lat;lon;timestamp;pressure;altitude;pressure_sealevel;temperature;humidity
8637;BME280;4356;49.068;8.658;2023-12-28T00:01:22;99992.63;;;14.13;45.46
8637;BME280;4356;49.068;8.658;2023-12-28T00:03:48;99966.97;;;14.03;45.92
8637;BME280;4356;49.068;8.658;2023-12-28T00:06:14;99982.41;;;14.09;45.83
8637;BME280;4356;49.068;8.658;2023-12-28T00:08:40;99999.28;;;14.11;45.81
8637;BME280;4356;49.068;8.658;2023-12-28T00:11:06;99985.97;;;14.09;45.88
8637;BME280;4356;49.068;8.658;2023-12-28T00:13:31;99982.63;;;14.07;45.65
8637;BME280;4356;49.068;8.658;2023-12-28T00:15:56;99975.31;;;14.08;46.15
8637;BME280;4356;49.068;8.658;2023-12-28T00:18:22;99979.25;;;14.05;45.58
8637;BME280;4356;49.068;8.658;2023-12-28T00:20:47;99974.22;;;14.02;45.70
8637;BME280;4356;49.068;8.658;2023-12-28T00:23:12;99982.63;;;14.07;45.74
8637;BME280;4356;49.068;8.658;2023-12-28T00:25:38;99987.16;;;14.07;45.48
8637;BME280;4356;49.068;8.658;2023-12-28T00:28:03;99984.03;;;14.03;46.30
8637;BME280;4356;49.068;8.658;2023-12-28T00:30:29;99986.72;;;14.03;46.17
8637;BME280;4356;49.068;8.658;2023-12-28T00:32:54;99985.88;;;14.03;45.72
8637;BME280;4356;49.068;8.658;2023-12-28T00:35:20;99990.44;;;14.02;46.18
8637;BME280;4356;49.068;8.658;2023-12-28T00:37:45;99998.19;;;14.05;45.81
8637;BME280;4356;49.068;8.658;2023-12-28T00:40:11;99988.78;;;14.01;45.89
8637;BME280;4356;49.068;8.658;2023-12-28T00:42:36;99998.72;;;14.01;46.04
8637;BME280;4356;49.068;8.658;2023-12-28T00:45:02;99997.91;;;14.00;46.03
8637;BME280;4356;49.068;8.658;2023-12-28T00:47:27;100000.44;;;14.02;45.43
8637;BME280;4356;49.068;8.658;2023-12-28T00:49:53;99999.78;;;14.00;45.77
8637;BME280;4356;49.068;8.658;2023-12-28T00:52:18;99990.81;;;13.99;45.54
8637;BME280;4356;49.068;8.658;2023-12-28T00:54:44;99989.81;;;14.00;45.97
8637;BME280;4356;49.068;8.658;2023-12-28T00:57:09;99991.41;;;13.95;46.08
8637;BME280;4356;49.068;8.658;2023-12-28T00:59:34;99979.16;;;13.99;45.85
8637;BME280;4356;49.068;8.658;2023-12-28T01:02:00;99989.16;;;13.98;46.46
8637;BME280;4356;49.068;8.658;2023-12-28T01:04:25;99995.56;;;13.97;46.23
8637;BME280;4356;49.068;8.658;2023-12-28T01:06:52;99995.38;;;13.99;45.95
8637;BME280;4356;49.068;8.658;2023-12-28T01:09:17;99997.44;;;13.97;45.84
8637;BME280;4356;49.068;8.658;2023-12-28T01:11:42;99996.44;;;13.98;46.13
8637;BME280;4356;49.068;8.658;2023-12-28T01:14:08;99997.28;;;13.98;46.27
8637;BME280;4356;49.068;8.658;2023-12-28T01:16:33;100000.53;;;13.94;46.28
8637;BME280;4356;49.068;8.658;2023-12-28T01:18:58;100007.63;;;13.95;45.84
8637;BME280;4356;49.068;8.658;2023-12-28T01:21:24;100001.19;;;13.96;45.75
8637;BME280;4356;49.068;8.658;2023-12-28T01:23:54;99982.09;;;13.83;45.13
8637;BME280;4356;49.068;8.658;2023-12-28T01:26:19;100009.28;;;13.96;45.58
8637;BME280;4356;49.068;8.658;2023-12-28T01:28:45;100005.72;;;13.95;44.89
8637;BME280;4356;49.068;8.658;2023-12-28T01:31:10;99987.03;;;13.94;45.19
8637;BME280;4356;49.068;8.658;2023-12-28T01:33:35;100003.88;;;13.96;45.36
8637;BME280;4356;49.068;8.658;2023-12-28T01:36:01;100006.59;;;13.96;45.58
8637;BME280;4356;49.068;8.658;2023-12-28T01:38:27;99999.31;;;13.96;45.20
8637;BME280;4356;49.068;8.658;2023-12-28T01:40:53;99993.00;;;13.89;45.13
8637;BME280;4356;49.068;8.658;2023-12-28T01:43:18;100011.34;;;13.94;45.31
8637;BME280;4356;49.068;8.658;2023-12-28T01:45:44;100012.56;;;13.91;44.96
8637;BME280;4356;49.068;8.658;2023-12-28T01:48:10;100020.94;;;13.96;45.37
8637;BME280;4356;49.068;8.658;2023-12-28T01:50:36;100014.03;;;13.94;45.25
8637;BME280;4356;49.068;8.658;2023-12-28T01:53:03;100013.56;;;13.90;45.21
8637;BME280;4356;49.068;8.658;2023-12-28T01:55:29;100025.50;;;13.96;45.33
8637;BME280;4356;49.068;8.658;2023-12-28T01:57:56;100018.44;;;13.95;45.37
8637;BME280;4356;49.068;8.658;2023-12-28T02:00:22;100028.38;;;13.94;45.90
8637;BME280;4356;49.068;8.658;2023-12-28T02:02:48;100032.75;;;13.95;46.34
8637;BME280;4356;49.068;8.658;2023-12-28T02:05:14;100032.94;;;13.94;46.57
8637;BME280;4356;49.068;8.658;2023-12-28T02:07:40;100026.69;;;13.93;46.35
8637;BME280;4356;49.068;8.658;2023-12-28T02:10:06;100031.09;;;13.94;46.63
8637;BME280;4356;49.068;8.658;2023-12-28T02:12:32;100033.13;;;13.92;46.56
8637;BME280;4356;49.068;8.658;2023-12-28T02:14:58;100024.19;;;13.92;46.83
8637;BME280;4356;49.068;8.658;2023-12-28T02:17:32;100021.28;;;13.93;47.36
8637;BME280;4356;49.068;8.658;2023-12-28T02:20:00;100022.97;;;13.94;47.28
8637;BME280;4356;49.068;8.658;2023-12-28T02:22:26;100016.94;;;13.92;47.20
8637;BME280;4356;49.068;8.658;2023-12-28T02:25:08;100028.38;;;13.94;46.51
8637;BME280;4356;49.068;8.658;2023-12-28T02:27:39;100023.53;;;13.90;46.82
8637;BME280;4356;49.068;8.658;2023-12-28T02:30:09;100023.72;;;13.88;47.55
8637;BME280;4356;49.068;8.658;2023-12-28T02:32:53;100030.44;;;13.92;47.18
8637;BME280;4356;49.068;8.658;2023-12-28T02:35:31;100026.88;;;13.92;48.34
8637;BME280;4356;49.068;8.658;2023-12-28T02:37:59;100027.09;;;13.90;48.69
8637;BME280;4356;49.068;8.658;2023-12-28T02:40:27;100023.38;;;13.91;48.29
8637;BME280;4356;49.068;8.658;2023-12-28T02:42:53;100022.72;;;13.89;48.94
8637;BME280;4356;49.068;8.658;2023-12-28T02:45:18;100032.50;;;13.90;48.75
8637;BME280;4356;49.068;8.658;2023-12-28T02:47:45;100033.34;;;13.91;49.18
8637;BME280;4356;49.068;8.658;2023-12-28T02:50:10;100027.94;;;13.91;49.37
8637;BME280;4356;49.068;8.658;2023-12-28T02:52:36;100019.19;;;13.89;49.31
8637;BME280;4356;49.068;8.658;2023-12-28T02:55:01;100029.78;;;13.90;48.77
8637;BME280;4356;49.068;8.658;2023-12-28T02:57:27;100024.38;;;13.90;48.96
8637;BME280;4356;49.068;8.658;2023-12-28T02:59:52;100038.16;;;13.95;49.60
8637;BME280;4356;49.068;8.658;2023-12-28T03:02:17;100023.63;;;13.96;49.50
8637;BME280;4356;49.068;8.658;2023-12-28T03:04:43;100025.31;;;13.97;50.16
8637;BME280;4356;49.068;8.658;2023-12-28T03:07:08;100033.03;;;14.00;49.69
8637;BME280;4356;49.068;8.658;2023-12-28T03:09:34;100025.31;;;13.97;49.22
8637;BME280;4356;49.068;8.658;2023-12-28T03:12:00;100033.88;;;14.01;49.63
8637;BME280;4356;49.068;8.658;2023-12-28T03:14:25;100035.75;;;14.00;50.97
8637;BME280;4356;49.068;8.658;2023-12-28T03:16:51;100030.81;;;14.04;51.11
8637;BME280;4356;49.068;8.658;2023-12-28T03:19:16;100035.16;;;14.05;50.20
8637;BME280;4356;49.068;8.658;2023-12-28T03:21:43;100032.47;;;14.05;50.41
8637;BME280;4356;49.068;8.658;2023-12-28T03:24:08;100032.25;;;14.06;50.45
8637;BME280;4356;49.068;8.658;2023-12-28T03:26:38;100030.81;;;14.04;50.56
8637;BME280;4356;49.068;8.658;2023-12-28T03:29:05;100026.00;;;14.06;50.72
8637;BME280;4356;49.068;8.658;2023-12-28T03:31:31;100019.78;;;14.05;50.59
8637;BME280;4356;49.068;8.658;2023-12-28T03:33:56;100023.97;;;14.08;51.44
8637;BME280;4356;49.068;8.658;2023-12-28T03:36:21;100026.50;;;14.09;50.50
8637;BME280;4356;49.068;8.658;2023-12-28T03:38:48;100018.41;;;14.09;50.22
8637;BME280;4356;49.068;8.658;2023-12-28T03:41:20;100015.09;;;14.14;49.81
8637;BME280;4356;49.068;8.658;2023-12-28T03:43:46;100018.00;;;14.12;49.61
8637;BME280;4356;49.068;8.658;2023-12-28T03:46:12;100018.84;;;14.13;49.33
8637;BME280;4356;49.068;8.658;2023-12-28T03:48:37;100008.22;;;14.11;49.21
8637;BME280;4356;49.068;8.658;2023-12-28T03:51:06;100016.50;;;14.10;49.26
8637;BME280;4356;49.068;8.658;2023-12-28T03:53:32;100021.72;;;14.11;49.01
8637;BME280;4356;49.068;8.658;2023-12-28T03:56:00;100019.94;;;14.18;48.96
8637;BME280;4356;49.068;8.658;2023-12-28T03:58:26;100034.47;;;14.17;48.29
8637;BME280;4356;49.068;8.658;2023-12-28T04:00:52;100042.38;;;14.19;48.43
8637;BME280;4356;49.068;8.658;2023-12-28T04:03:18;100033.81;;;14.15;49.12
8637;BME280;4356;49.068;8.658;2023-12-28T04:05:43;100028.22;;;14.17;48.92
8637;BME280;4356;49.068;8.658;2023-12-28T04:08:09;100036.97;;;14.19;48.65
8637;BME280;4356;49.068;8.658;2023-12-28T04:10:34;100049.50;;;14.20;48.50
8637;BME280;4356;49.068;8.658;2023-12-28T04:13:02;100063.47;;;14.23;48.53
8637;BME280;4356;49.068;8.658;2023-12-28T04:15:27;100034.47;;;14.17;48.67
8637;BME280;4356;49.068;8.658;2023-12-28T04:17:53;100045.56;;;14.22;48.60
8637;BME280;4356;49.068;8.658;2023-12-28T04:20:18;100057.00;;;14.24;48.21
8637;BME280;4356;49.068;8.658;2023-12-28T04:22:43;100050.13;;;14.22;48.23
8637;BME280;4356;49.068;8.658;2023-12-28T04:25:10;100051.81;;;14.23;48.71
8637;BME280;4356;49.068;8.658;2023-12-28T04:27:36;100059.53;;;14.26;48.32
8637;BME280;4356;49.068;8.658;2023-12-28T04:30:01;100045.38;;;14.24;47.98
8637;BME280;4356;49.068;8.658;2023-12-28T04:32:27;100039.50;;;14.20;48.03
8637;BME280;4356;49.068;8.658;2023-12-28T04:34:53;100036.06;;;14.26;47.85
8637;BME280;4356;49.068;8.658;2023-12-28T04:37:19;100009.91;;;14.12;47.73
8637;BME280;4356;49.068;8.658;2023-12-28T04:39:45;100041.19;;;14.21;47.98
8637;BME280;4356;49.068;8.658;2023-12-28T04:42:11;100050.94;;;14.22;47.76
8637;BME280;4356;49.068;8.658;2023-12-28T04:44:39;100069.88;;;14.22;47.47
8637;BME280;4356;49.068;8.658;2023-12-28T04:47:05;100063.75;;;14.14;47.78
8637;BME280;4356;49.068;8.658;2023-12-28T04:49:31;100101.59;;;14.28;47.61
8637;BME280;4356;49.068;8.658;2023-12-28T04:51:57;100074.06;;;14.25;47.47
8637;BME280;4356;49.068;8.658;2023-12-28T04:54:22;100076.13;;;14.23;47.46
8637;BME280;4356;49.068;8.658;2023-12-28T04:56:48;100083.38;;;14.22;47.89
8637;BME280;4356;49.068;8.658;2023-12-28T04:59:13;100079.47;;;14.25;48.14
8637;BME280;4356;49.068;8.658;2023-12-28T05:01:45;100081.00;;;14.27;47.47
8637;BME280;4356;49.068;8.658;2023-12-28T05:04:10;100078.44;;;14.26;48.19
8637;BME280;4356;49.068;8.658;2023-12-28T05:06:36;100077.63;;;14.25;47.72
8637;BME280;4356;49.068;8.658;2023-12-28T05:09:02;100077.63;;;14.25;48.40
8637;BME280;4356;49.068;8.658;2023-12-28T05:11:28;100076.78;;;14.25;47.95
8637;BME280;4356;49.068;8.658;2023-12-28T05:13:53;100077.97;;;14.22;47.86
8637;BME280;4356;49.068;8.658;2023-12-28T05:16:19;100080.31;;;14.25;47.93
8637;BME280;4356;49.068;8.658;2023-12-28T05:18:48;100090.78;;;14.28;48.30
8637;BME280;4356;49.068;8.658;2023-12-28T05:21:13;100083.84;;;14.26;47.69
8637;BME280;4356;49.068;8.658;2023-12-28T05:23:39;100070.81;;;14.29;47.45
8637;BME280;4356;49.068;8.658;2023-12-28T05:26:04;100056.81;;;14.26;47.84
8637;BME280;4356;49.068;8.658;2023-12-28T05:28:30;100072.50;;;14.30;48.16
8637;BME280;4356;49.068;8.658;2023-12-28T05:30:55;100073.53;;;14.29;47.71
8637;BME280;4356;49.068;8.658;2023-12-28T05:33:21;100063.09;;;14.26;48.03
8637;BME280;4356;49.068;8.658;2023-12-28T05:35:47;100085.84;;;14.32;47.97
8637;BME280;4356;49.068;8.658;2023-12-28T05:38:13;100086.22;;;14.29;48.24
8637;BME280;4356;49.068;8.658;2023-12-28T05:40:38;100083.72;;;14.27;48.02
8637;BME280;4356;49.068;8.658;2023-12-28T05:43:04;100080.63;;;14.30;48.42
8637;BME280;4356;49.068;8.658;2023-12-28T05:45:29;100089.75;;;14.29;48.26
8637;BME280;4356;49.068;8.658;2023-12-28T05:47:54;100086.88;;;14.31;48.02
8637;BME280;4356;49.068;8.658;2023-12-28T05:50:19;100106.25;;;14.34;48.18
8637;BME280;4356;49.068;8.658;2023-12-28T05:52:45;100090.59;;;14.30;47.81
8637;BME280;4356;49.068;8.658;2023-12-28T05:55:11;100100.38;;;14.31;47.67
8637;BME280;4356;49.068;8.658;2023-12-28T05:57:36;100105.59;;;14.32;47.62
8637;BME280;4356;49.068;8.658;2023-12-28T06:00:02;100105.41;;;14.34;47.92
8637;BME280;4356;49.068;8.658;2023-12-28T06:02:29;100114.38;;;14.34;47.22
8637;BME280;4356;49.068;8.658;2023-12-28T06:04:54;100118.28;;;14.32;47.67
8637;BME280;4356;49.068;8.658;2023-12-28T06:07:20;100100.25;;;14.24;47.64
8637;BME280;4356;49.068;8.658;2023-12-28T06:09:45;100111.47;;;14.36;48.05
8637;BME280;4356;49.068;8.658;2023-12-28T06:12:11;100107.91;;;14.35;47.89
8637;BME280;4356;49.068;8.658;2023-12-28T06:14:36;100111.47;;;14.36;47.72
8637;BME280;4356;49.068;8.658;2023-12-28T06:17:02;100109.31;;;14.31;47.36
8637;BME280;4356;49.068;8.658;2023-12-28T06:19:27;100120.41;;;14.36;47.58
8637;BME280;4356;49.068;8.658;2023-12-28T06:21:53;100116.22;;;14.34;47.76
8637;BME280;4356;49.068;8.658;2023-12-28T06:24:19;100128.53;;;14.36;47.83
8637;BME280;4356;49.068;8.658;2023-12-28T06:26:44;100124.13;;;14.35;47.84
8637;BME280;4356;49.068;8.658;2023-12-28T06:29:10;100133.28;;;14.34;47.86
8637;BME280;4356;49.068;8.658;2023-12-28T06:31:36;100148.28;;;14.37;48.13
8637;BME280;4356;49.068;8.658;2023-12-28T06:34:05;100148.47;;;14.35;47.65
8637;BME280;4356;49.068;8.658;2023-12-28T06:36:34;100157.63;;;14.34;47.89
8637;BME280;4356;49.068;8.658;2023-12-28T06:38:59;100163.03;;;14.34;47.60
8637;BME280;4356;49.068;8.658;2023-12-28T06:41:25;100168.91;;;14.38;47.48
8637;BME280;4356;49.068;8.658;2023-12-28T06:43:51;100163.22;;;14.33;47.68
8637;BME280;4356;49.068;8.658;2023-12-28T06:46:17;100171.41;;;14.39;47.55
8637;BME280;4356;49.068;8.658;2023-12-28T06:48:43;100158.91;;;14.38;47.53
8637;BME280;4356;49.068;8.658;2023-12-28T06:51:21;100172.41;;;14.38;47.73
8637;BME280;4356;49.068;8.658;2023-12-28T06:53:47;100160.59;;;14.39;47.48
8637;BME280;4356;49.068;8.658;2023-12-28T06:56:14;100164.94;;;14.40;47.26
8637;BME280;4356;49.068;8.658;2023-12-28T06:58:39;100165.16;;;14.39;47.53
8637;BME280;4356;49.068;8.658;2023-12-28T07:01:05;100169.34;;;14.41;47.65
8637;BME280;4356;49.068;8.658;2023-12-28T07:03:31;100160.13;;;14.36;47.70
8637;BME280;4356;49.068;8.658;2023-12-28T07:05:58;100164.94;;;14.40;47.61
8637;BME280;4356;49.068;8.658;2023-12-28T07:08:23;100177.81;;;14.38;47.38
8637;BME280;4356;49.068;8.658;2023-12-28T07:10:49;100173.06;;;14.40;47.54
8637;BME280;4356;49.068;8.658;2023-12-28T07:13:14;100167.00;;;14.38;47.41
8637;BME280;4356;49.068;8.658;2023-12-28T07:15:39;100172.41;;;14.38;47.63
8637;BME280;4356;49.068;8.658;2023-12-28T07:18:05;100174.09;;;14.39;47.22
8637;BME280;4356;49.068;8.658;2023-12-28T07:20:30;100179.91;;;14.36;47.35
8637;BME280;4356;49.068;8.658;2023-12-28T07:22:56;100177.47;;;14.41;47.38
8637;BME280;4356;49.068;8.658;2023-12-28T07:25:21;100187.63;;;14.39;47.53
8637;BME280;4356;49.068;8.658;2023-12-28T07:27:46;100182.22;;;14.39;47.12
8637;BME280;4356;49.068;8.658;2023-12-28T07:30:12;100173.44;;;14.37;47.26
8637;BME280;4356;49.068;8.658;2023-12-28T07:32:37;100180.53;;;14.38;47.77
8637;BME280;4356;49.068;8.658;2023-12-28T07:35:03;100187.25;;;14.42;47.26
8637;BME280;4356;49.068;8.658;2023-12-28T07:37:29;100181.38;;;14.39;47.16
8637;BME280;4356;49.068;8.658;2023-12-28T07:39:54;100198.25;;;14.41;47.13
8637;BME280;4356;49.068;8.658;2023-12-28T07:42:20;100201.81;;;14.41;47.04
8637;BME280;4356;49.068;8.658;2023-12-28T07:44:45;100185.94;;;14.38;46.76
8637;BME280;4356;49.068;8.658;2023-12-28T07:47:11;100185.56;;;14.41;46.84
8637;BME280;4356;49.068;8.658;2023-12-28T07:49:40;100186.72;;;14.32;47.24
8637;BME280;4356;49.068;8.658;2023-12-28T07:52:06;100199.94;;;14.42;46.75
8637;BME280;4356;49.068;8.658;2023-12-28T07:54:31;100205.72;;;14.39;47.36
8637;BME280;4356;49.068;8.658;2023-12-28T07:56:56;100217.19;;;14.41;46.93
8637;BME280;4356;49.068;8.658;2023-12-28T07:59:22;100202.34;;;14.37;46.57
8637;BME280;4356;49.068;8.658;2023-12-28T08:01:47;100204.84;;;14.38;47.04
8637;BME280;4356;49.068;8.658;2023-12-28T08:04:13;100196.28;;;14.35;46.45
8637;BME280;4356;49.068;8.658;2023-12-28T08:06:38;100203.84;;;14.39;46.63
8637;BME280;4356;49.068;8.658;2023-12-28T08:09:03;100194.44;;;14.35;46.79
8637;BME280;4356;49.068;8.658;2023-12-28T08:11:29;100177.63;;;14.25;46.50
8637;BME280;4356;49.068;8.658;2023-12-28T08:13:54;100188.63;;;14.38;46.58
8637;BME280;4356;49.068;8.658;2023-12-28T08:16:20;100182.59;;;14.36;46.35
8637;BME280;4356;49.068;8.658;2023-12-28T08:18:46;100171.22;;;14.26;46.60
8637;BME280;4356;49.068;8.658;2023-12-28T08:21:11;100196.13;;;14.36;46.31
8637;BME280;4356;49.068;8.658;2023-12-28T08:23:37;100192.13;;;14.32;47.03
8637;BME280;4356;49.068;8.658;2023-12-28T08:26:02;100197.78;;;14.37;46.71
8637;BME280;4356;49.068;8.658;2023-12-28T08:28:28;100202.16;;;14.38;47.04
8637;BME280;4356;49.068;8.658;2023-12-28T08:30:53;100191.53;;;14.37;46.58
8637;BME280;4356;49.068;8.658;2023-12-28T08:33:20;100196.75;;;14.38;46.92
8637;BME280;4356;49.068;8.658;2023-12-28T08:35:45;100194.03;;;14.38;46.56
8637;BME280;4356;49.068;8.658;2023-12-28T08:38:11;100186.31;;;14.35;46.69
8637;BME280;4356;49.068;8.658;2023-12-28T08:40:36;100195.94;;;14.38;46.52
8637;BME280;4356;49.068;8.658;2023-12-28T08:43:01;100194.03;;;14.38;46.53
8637;BME280;4356;49.068;8.658;2023-12-28T08:45:27;100189.69;;;14.37;46.67
8637;BME280;4356;49.068;8.658;2023-12-28T08:47:52;100193.88;;;14.40;46.65
8637;BME280;4356;49.068;8.658;2023-12-28T08:50:18;100187.63;;;14.39;46.69
8637;BME280;4356;49.068;8.658;2023-12-28T08:52:43;100192.00;;;14.40;46.47
8637;BME280;4356;49.068;8.658;2023-12-28T08:55:09;100188.00;;;14.36;46.73
8637;BME280;4356;49.068;8.658;2023-12-28T08:57:35;100178.59;;;14.32;46.92
8637;BME280;4356;49.068;8.658;2023-12-28T09:00:00;100190.78;;;14.43;46.78
8637;BME280;4356;49.068;8.658;2023-12-28T09:02:28;100190.78;;;14.43;46.98
8637;BME280;4356;49.068;8.658;2023-12-28T09:04:54;100189.94;;;14.42;46.55
8637;BME280;4356;49.068;8.658;2023-12-28T09:07:19;100197.25;;;14.42;46.92
8637;BME280;4356;49.068;8.658;2023-12-28T09:09:45;100202.44;;;14.43;46.53
8637;BME280;4356;49.068;8.658;2023-12-28T09:12:11;100213.28;;;14.43;46.71
8637;BME280;4356;49.068;8.658;2023-12-28T09:14:36;100210.56;;;14.43;46.90
8637;BME280;4356;49.068;8.658;2023-12-28T09:17:02;100209.91;;;14.41;46.44
8637;BME280;4356;49.068;8.658;2023-12-28T09:19:27;100190.59;;;14.30;46.88
8637;BME280;4356;49.068;8.658;2023-12-28T09:21:53;100233.84;;;14.44;46.47
8637;BME280;4356;49.068;8.658;2023-12-28T09:24:18;100215.59;;;14.32;46.61
8637;BME280;4356;49.068;8.658;2023-12-28T09:26:44;100223.16;;;14.36;46.79
8637;BME280;4356;49.068;8.658;2023-12-28T09:29:09;100240.78;;;14.47;46.39
8637;BME280;4356;49.068;8.658;2023-12-28T09:31:35;100247.38;;;14.44;46.65
8637;BME280;4356;49.068;8.658;2023-12-28T09:34:00;100250.94;;;14.45;46.80
8637;BME280;4356;49.068;8.658;2023-12-28T09:36:25;100248.88;;;14.47;46.73
8637;BME280;4356;49.068;8.658;2023-12-28T09:38:51;100242.34;;;14.41;46.42
8637;BME280;4356;49.068;8.658;2023-12-28T09:41:16;100232.84;;;14.46;46.48
8637;BME280;4356;49.068;8.658;2023-12-28T09:44:12;100236.19;;;14.48;46.73
8637;BME280;4356;49.068;8.658;2023-12-28T09:46:42;100240.97;;;14.46;46.51
8637;BME280;4356;49.068;8.658;2023-12-28T09:49:08;100214.09;;;14.44;46.33
8637;BME280;4356;49.068;8.658;2023-12-28T09:51:34;100231.81;;;14.47;45.71
8637;BME280;4356;49.068;8.658;2023-12-28T09:54:01;100242.44;;;14.48;46.01
8637;BME280;4356;49.068;8.658;2023-12-28T09:56:28;100232.00;;;14.45;46.16
8637;BME280;4356;49.068;8.658;2023-12-28T09:58:55;100228.91;;;14.48;46.00
8637;BME280;4356;49.068;8.658;2023-12-28T10:01:21;100219.34;;;14.46;46.36
8637;BME280;4356;49.068;8.658;2023-12-28T10:03:47;100214.09;;;14.44;46.13
8637;BME280;4356;49.068;8.658;2023-12-28T10:06:12;100219.13;;;14.47;45.92
8637;BME280;4356;49.068;8.658;2023-12-28T10:08:48;100208.88;;;14.42;46.50
8637;BME280;4356;49.068;8.658;2023-12-28T10:11:17;100193.41;;;14.36;45.81
8637;BME280;4356;49.068;8.658;2023-12-28T10:13:44;100195.47;;;14.34;45.96
8637;BME280;4356;49.068;8.658;2023-12-28T10:16:11;100198.81;;;14.36;45.96
8637;BME280;4356;49.068;8.658;2023-12-28T10:18:40;100201.59;;;14.43;46.17
8637;BME280;4356;49.068;8.658;2023-12-28T10:21:05;100200.22;;;14.47;46.66
8637;BME280;4356;49.068;8.658;2023-12-28T10:23:31;100181.56;;;14.37;46.62
8637;BME280;4356;49.068;8.658;2023-12-28T10:25:57;100195.00;;;14.46;46.39
8637;BME280;4356;49.068;8.658;2023-12-28T10:28:24;100204.38;;;14.50;46.41
8637;BME280;4356;49.068;8.658;2023-12-28T10:30:54;100195.44;;;14.49;46.16
8637;BME280;4356;49.068;8.658;2023-12-28T10:33:21;100194.81;;;14.47;46.57
8637;BME280;4356;49.068;8.658;2023-12-28T10:35:51;100190.69;;;14.51;46.48
8637;BME280;4356;49.068;8.658;2023-12-28T10:38:17;100175.22;;;14.45;46.51
8637;BME280;4356;49.068;8.658;2023-12-28T10:40:46;100199.63;;;14.52;46.30
8637;BME280;4356;49.068;8.658;2023-12-28T10:43:16;100200.47;;;14.52;46.33
8637;BME280;4356;49.068;8.658;2023-12-28T10:45:46;100198.31;;;14.48;46.58
8637;BME280;4356;49.068;8.658;2023-12-28T10:48:12;100194.88;;;14.54;46.70
8637;BME280;4356;49.068;8.658;2023-12-28T10:58:51;100187.78;;;14.53;46.70
8637;BME280;4356;49.068;8.658;2023-12-28T11:01:31;100183.22;;;14.53;47.03
8637;BME280;4356;49.068;8.658;2023-12-28T11:04:05;100189.91;;;14.57;46.88
8637;BME280;4356;49.068;8.658;2023-12-28T11:06:34;100187.59;;;14.54;46.77
8637;BME280;4356;49.068;8.658;2023-12-28T11:09:00;100189.06;;;14.57;46.43
8637;BME280;4356;49.068;8.658;2023-12-28T11:11:27;100181.81;;;14.57;46.73
8637;BME280;4356;49.068;8.658;2023-12-28T11:13:54;100188.25;;;14.56;46.50
8637;BME280;4356;49.068;8.658;2023-12-28T11:16:22;100186.38;;;14.57;46.90
8637;BME280;4356;49.068;8.658;2023-12-28T11:18:48;100182.00;;;14.56;46.47
8637;BME280;4356;49.068;8.658;2023-12-28T11:21:14;100163.34;;;14.46;46.89
8637;BME280;4356;49.068;8.658;2023-12-28T11:23:41;100174.94;;;14.55;46.87
8637;BME280;4356;49.068;8.658;2023-12-28T11:26:19;100181.25;;;14.62;46.51
8637;BME280;4356;49.068;8.658;2023-12-28T11:28:45;100179.94;;;14.58;46.49
8637;BME280;4356;49.068;8.658;2023-12-28T11:31:13;100180.59;;;14.60;46.76
8637;BME280;4356;49.068;8.658;2023-12-28T11:33:46;100179.75;;;14.59;46.65
8637;BME280;4356;49.068;8.658;2023-12-28T11:36:33;100169.59;;;14.61;47.22
8637;BME280;4356;49.068;8.658;2023-12-28T11:39:05;100168.28;;;14.57;46.72
8637;BME280;4356;49.068;8.658;2023-12-28T11:41:36;100178.56;;;14.62;46.52
8637;BME280;4356;49.068;8.658;2023-12-28T11:44:02;100175.84;;;14.62;46.40
8637;BME280;4356;49.068;8.658;2023-12-28T11:46:30;100166.03;;;14.61;46.73
8637;BME280;4356;49.068;8.658;2023-12-28T11:49:09;100168.53;;;14.62;46.88
8637;BME280;4356;49.068;8.658;2023-12-28T11:51:36;100163.53;;;14.59;46.26
8637;BME280;4356;49.068;8.658;2023-12-28T11:54:03;100163.53;;;14.59;46.78
8637;BME280;4356;49.068;8.658;2023-12-28T11:56:29;100155.22;;;14.61;46.66
8637;BME280;4356;49.068;8.658;2023-12-28T11:58:55;100134.28;;;14.48;46.78
8637;BME280;4356;49.068;8.658;2023-12-28T12:01:20;100129.97;;;14.54;46.88
8637;BME280;4356;49.068;8.658;2023-12-28T12:03:46;100147.09;;;14.61;47.08
8637;BME280;4356;49.068;8.658;2023-12-28T12:06:13;100145.06;;;14.63;46.86
8637;BME280;4356;49.068;8.658;2023-12-28T12:08:38;100132.94;;;14.59;46.93
8637;BME280;4356;49.068;8.658;2023-12-28T12:11:07;100133.56;;;14.61;47.39
8637;BME280;4356;49.068;8.658;2023-12-28T12:13:33;100140.28;;;14.65;47.21
8637;BME280;4356;49.068;8.658;2023-12-28T12:15:58;100122.06;;;14.52;47.35
8637;BME280;4356;49.068;8.658;2023-12-28T12:18:25;100134.03;;;14.64;47.20
8637;BME280;4356;49.068;8.658;2023-12-28T12:20:50;100139.44;;;14.64;47.07
8637;BME280;4356;49.068;8.658;2023-12-28T12:23:15;100121.19;;;14.52;47.00
8637;BME280;4356;49.068;8.658;2023-12-28T12:25:42;100144.66;;;14.66;46.97
8637;BME280;4356;49.068;8.658;2023-12-28T12:28:07;100136.94;;;14.63;47.06
8637;BME280;4356;49.068;8.658;2023-12-28T12:30:34;100125.47;;;14.61;47.13
8637;BME280;4356;49.068;8.658;2023-12-28T12:32:59;100131.97;;;14.66;46.96
8637;BME280;4356;49.068;8.658;2023-12-28T12:35:25;100124.06;;;14.65;47.25
8637;BME280;4356;49.068;8.658;2023-12-28T12:37:50;100122.41;;;14.64;46.84
8637;BME280;4356;49.068;8.658;2023-12-28T12:40:17;100132.19;;;14.65;46.74
8637;BME280;4356;49.068;8.658;2023-12-28T12:42:52;100130.31;;;14.65;46.51
8637;BME280;4356;49.068;8.658;2023-12-28T12:45:18;100132.63;;;14.68;46.47
8637;BME280;4356;49.068;8.658;2023-12-28T12:47:44;100119.50;;;14.65;46.57
8637;BME280;4356;49.068;8.658;2023-12-28T12:50:09;100129.06;;;14.68;46.15
8637;BME280;4356;49.068;8.658;2023-12-28T12:52:36;100128.81;;;14.63;46.58
8637;BME280;4356;49.068;8.658;2023-12-28T12:55:01;100135.34;;;14.68;46.67
8637;BME280;4356;49.068;8.658;2023-12-28T12:57:27;100121.34;;;14.65;46.48
8637;BME280;4356;49.068;8.658;2023-12-28T12:59:53;100121.81;;;14.68;46.88
8637;BME280;4356;49.068;8.658;2023-12-28T13:02:18;100125.56;;;14.67;46.37
8637;BME280;4356;49.068;8.658;2023-12-28T13:04:43;100129.28;;;14.66;46.61
8637;BME280;4356;49.068;8.658;2023-12-28T13:07:09;100128.44;;;14.66;46.15
8637;BME280;4356;49.068;8.658;2023-12-28T13:09:34;100132.38;;;14.63;46.70
8637;BME280;4356;49.068;8.658;2023-12-28T13:12:01;100113.34;;;14.57;46.57
8637;BME280;4356;49.068;8.658;2023-12-28T13:14:27;100130.13;;;14.67;46.15
8637;BME280;4356;49.068;8.658;2023-12-28T13:16:52;100122.84;;;14.67;46.37